map of CER home
CER - Airport
Location
City:  Cherbourg, Basse-Normandie (Lower Normandy), France
Name:Maupertus
ICAO:LFRC
IATA:CER

Details
Type:Airport (Aerodrome, Airfield)
Use:Public/Civil
Latitude:4939'03"N (49.650833)
Longitude:128'31"W (-1.475277)
Elevation:459 ft (140 m)
Variation:0.39W (WMM2015v2 magnetic declination)
0.18 annual change
Runways:1
Longest:8005 × 148 ft (2440 × 45 m), paved

Time
Time Zone:UTC+1 (DST+2)
Local Time:

Weather
METAR:LFRC 041400Z AUTO 20020G30KT 9999 OVC007 07/05 Q1018 TEMPO 3000 BR BKN003

Related Locations
Nearby:
Farthest:NZTI: 11975 mi / 19271 km
Taieri, OTA, NZ

Find:

   beyond  
but within

Other Information
Maps:
NOTAMs:
Links:
Sources:

  
  • flag of France
  • flag of Basse-Normandie (Lower Normandy)
  

Sectional Chart

Flight Planning
at skyvector.com

Satellite Image

Google Maps Satellite view

 

Copyright © 2004-2019 Karl L. Swartz. All rights reserved.
The Great Circle Mapper name and logo are trademarks of the Great Circle Mapper.
All other trademarks mentioned herein belong to their respective owners.
Please see credits for attibutions and further copyright information.

  Follow gcmap on Facebook Follow gcmap on Twitter GCmap on LinkedIn

hCard Microformat

Geo Microformat